Etusivu
METAR-TAF:

METAR-TAF

Lentoasemat :

Beaver Island Airport

Beaver Island, Michigan, Yhdysvallat

Leveyspiiri: 45-41-32N, Pituuspiiri: 085-33-59W, korkeus merenpinnasta: 204 m

Tämänhetkinen sää

Tämä raportti tehtiin 19 minuuttia sitten, kello 11.35 UTC
Tuuli 19 kn lännestä puuskistuen 26 kn:hen
Lämpötila 2°C
Kosteus 80%
Ilmanpaine 995 hPa
Näkyvyys: 16.1 km
Pilvistä 4900 ft:n korkeudessa

METAR: KSJX 211135Z AUTO 26019G26KT 10SM OVC049 02/M01 A2938 RMK AO2 T00221015

Aika: 06:54 (11:54 UTC)


TAF: puuttuu

Säähavainnot ja -ennusteet yli 4000 lentoasemalta (METAR- ja TAF-raportit).

Käytössä olevat sääasemat on merkitty karttaan keltaisilla ja punaisilla pisteillä.

Aseta hiiri pisteen päälle nähdäksesi sääaseman nimen.

Klikkaa sitten nähdäksesi säähavainnot ja -ennusteet.

Kartan vaihtaminen: klikkaa mustalla rastilla varustettuja vihreitä pisteitä, niin voit zoomata sisään; viivalla varustettua vihreää pistettä, niin voit zoomata ulos tai vihreitä nuolia, niin pääset viereisille kartoille.


METAR-TAF: